createdAt,value
2023-01-13T00:00:07.021Z,10.75
2023-01-13T00:03:13.121Z,11.04
2023-01-13T00:06:21.587Z,10.98
2023-01-13T00:09:23.160Z,11.02
2023-01-13T00:12:24.701Z,11.08
2023-01-13T00:15:26.264Z,10.91
2023-01-13T00:18:28.335Z,11.00
2023-01-13T00:21:29.838Z,10.89
2023-01-13T00:24:31.460Z,11.11
2023-01-13T00:27:33.586Z,11.01
2023-01-13T00:30:38.484Z,10.86
2023-01-13T00:33:40.502Z,10.66
2023-01-13T00:36:42.031Z,10.71
2023-01-13T00:39:43.656Z,10.84
2023-01-13T00:43:03.729Z,10.57
2023-01-13T00:46:07.807Z,10.68
2023-01-13T00:49:09.360Z,10.38
2023-01-13T00:52:12.090Z,10.61
2023-01-13T00:55:13.645Z,10.62
2023-01-13T00:58:15.443Z,10.69
2023-01-13T01:01:19.635Z,10.64
2023-01-13T01:04:21.249Z,10.59
2023-01-13T01:07:22.775Z,10.89
2023-01-13T01:10:24.341Z,10.47
2023-01-13T01:13:25.867Z,10.68
2023-01-13T01:16:30.384Z,10.70
2023-01-13T01:19:32.037Z,10.75
2023-01-13T01:22:33.638Z,10.60
2023-01-13T01:25:35.132Z,10.70
2023-01-13T01:28:36.760Z,10.57
2023-01-13T01:31:38.367Z,10.57
2023-01-13T01:34:39.932Z,10.58
2023-01-13T01:37:41.444Z,10.75
2023-01-13T01:40:42.967Z,10.63
2023-01-13T01:44:08.976Z,10.56
2023-01-13T01:47:14.398Z,10.63
2023-01-13T01:50:17.441Z,10.78
2023-01-13T01:53:24.135Z,10.61
2023-01-13T01:56:25.760Z,10.73
2023-01-13T01:59:32.516Z,10.68
2023-01-13T02:02:34.330Z,10.61
2023-01-13T02:05:36.473Z,10.31
2023-01-13T02:08:40.283Z,10.45
2023-01-13T02:12:00.358Z,10.41
2023-01-13T02:15:09.073Z,10.58
2023-01-13T02:18:32.464Z,10.74
2023-01-13T02:21:51.106Z,10.73
2023-01-13T02:25:39.359Z,10.33
2023-01-13T02:29:25.771Z,10.41
2023-01-13T02:32:47.195Z,10.71
2023-01-13T02:36:01.421Z,10.58
2023-01-13T02:39:14.030Z,10.60
2023-01-13T02:42:44.302Z,10.70
2023-01-13T02:45:57.478Z,10.62
2023-01-13T02:49:04.889Z,10.44
2023-01-13T02:52:12.299Z,10.48
2023-01-13T02:55:18.701Z,10.18
2023-01-13T02:58:25.101Z,10.41
2023-01-13T03:01:27.014Z,10.49
2023-01-13T03:04:46.670Z,10.36
2023-01-13T03:08:09.172Z,10.38
2023-01-13T03:11:14.328Z,10.49
2023-01-13T03:14:30.367Z,10.51
2023-01-13T03:17:43.909Z,10.45
2023-01-13T03:21:03.059Z,10.17
2023-01-13T03:24:16.984Z,10.54
2023-01-13T03:27:25.561Z,10.32
2023-01-13T03:30:38.811Z,10.11
2023-01-13T03:33:51.387Z,10.18
2023-01-13T03:36:54.988Z,10.13
2023-01-13T03:40:03.834Z,10.23
2023-01-13T03:43:30.387Z,10.31
2023-01-13T03:46:42.317Z,9.97
2023-01-13T03:50:10.010Z,10.45
2023-01-13T03:53:18.640Z,10.19
2023-01-13T03:56:27.317Z,10.47
2023-01-13T03:59:37.942Z,10.16
2023-01-13T04:02:52.203Z,9.93
2023-01-13T04:05:59.848Z,10.04
2023-01-13T04:09:33.299Z,9.92
2023-01-13T04:13:01.101Z,10.18
2023-01-13T04:16:05.674Z,10.23
2023-01-13T04:19:07.165Z,10.04
2023-01-13T04:22:08.645Z,10.52
2023-01-13T04:25:11.451Z,10.34
2023-01-13T04:28:13.868Z,10.00
2023-01-13T04:31:15.375Z,10.17
2023-01-13T04:34:16.866Z,10.46
2023-01-13T04:37:18.517Z,9.94
2023-01-13T04:40:19.941Z,9.85
2023-01-13T04:43:21.399Z,9.82
2023-01-13T04:46:22.904Z,10.01
2023-01-13T04:49:24.435Z,9.73
2023-01-13T04:52:25.931Z,9.99
2023-01-13T04:55:27.957Z,9.93
2023-01-13T04:58:29.434Z,10.07
2023-01-13T05:01:31.075Z,9.83
2023-01-13T05:04:32.553Z,9.98
2023-01-13T05:07:34.009Z,9.99
2023-01-13T05:10:35.461Z,10.08
2023-01-13T05:13:55.605Z,9.99
2023-01-13T05:17:06.170Z,10.11
2023-01-13T05:20:08.755Z,9.74
2023-01-13T05:23:28.911Z,9.92
2023-01-13T05:26:30.303Z,10.00
2023-01-13T05:29:31.684Z,10.17
2023-01-13T05:32:33.256Z,10.16
2023-01-13T05:35:34.702Z,10.17
2023-01-13T05:38:36.150Z,10.11
2023-01-13T05:41:56.310Z,10.09
2023-01-13T05:44:57.751Z,10.18
2023-01-13T05:47:59.168Z,9.95
2023-01-13T05:51:01.800Z,9.98
2023-01-13T05:54:03.552Z,10.45
2023-01-13T05:57:04.960Z,10.03
2023-01-13T06:00:07.129Z,9.94
2023-01-13T06:03:16.099Z,10.24
2023-01-13T06:06:17.673Z,10.33
2023-01-13T06:09:20.966Z,10.31
2023-01-13T06:12:22.395Z,10.12
2023-01-13T06:15:24.463Z,10.25
2023-01-13T06:18:26.447Z,10.09
2023-01-13T06:21:27.842Z,10.42
2023-01-13T06:24:29.346Z,10.13
2023-01-13T06:27:31.058Z,10.20
2023-01-13T06:30:40.017Z,10.24
2023-01-13T06:33:49.303Z,10.29
2023-01-13T06:36:53.722Z,10.36
2023-01-13T06:39:58.624Z,10.29
2023-01-13T06:43:16.659Z,10.57
2023-01-13T06:46:18.743Z,10.14
2023-01-13T06:49:21.732Z,10.01
2023-01-13T06:52:23.484Z,10.51
2023-01-13T06:55:25.292Z,10.07
2023-01-13T06:58:26.821Z,10.33
2023-01-13T07:01:28.356Z,10.22
2023-01-13T07:04:29.860Z,10.31
2023-01-13T07:07:32.615Z,10.38
2023-01-13T07:10:34.865Z,10.05
2023-01-13T07:13:55.071Z,10.51
2023-01-13T07:16:56.555Z,10.29
2023-01-13T07:19:58.004Z,9.82
2023-01-13T07:22:59.415Z,9.97
2023-01-13T07:26:01.170Z,9.45
2023-01-13T07:29:02.645Z,9.51
2023-01-13T07:32:04.340Z,9.37
2023-01-13T07:35:06.308Z,9.53
2023-01-13T07:38:08.364Z,9.18
2023-01-13T07:41:31.655Z,9.31
2023-01-13T07:44:33.447Z,9.54
2023-01-13T07:47:34.923Z,9.48
2023-01-13T07:50:36.407Z,9.37
2023-01-13T07:53:38.789Z,9.59
2023-01-13T07:56:40.093Z,9.04
2023-01-13T07:59:41.713Z,9.39
2023-01-13T08:02:43.251Z,9.41
2023-01-13T08:05:44.754Z,9.29
2023-01-13T08:08:46.322Z,9.55
2023-01-13T08:12:07.727Z,9.45
2023-01-13T08:15:10.127Z,9.55
2023-01-13T08:18:11.858Z,9.78
2023-01-13T08:21:14.595Z,9.64
2023-01-13T08:24:16.024Z,9.55
2023-01-13T08:27:17.550Z,9.35
2023-01-13T08:30:19.257Z,8.75
2023-01-13T08:33:21.000Z,8.93
2023-01-13T08:36:22.541Z,9.45
2023-01-13T08:39:25.097Z,9.65
2023-01-13T08:42:27.713Z,9.32
2023-01-13T08:45:29.292Z,9.52
2023-01-13T08:48:31.635Z,9.18
2023-01-13T08:51:33.803Z,8.94
2023-01-13T08:54:38.553Z,8.86
2023-01-13T08:57:40.185Z,9.18
2023-01-13T09:00:42.205Z,9.13
2023-01-13T09:03:43.930Z,9.42
2023-01-13T09:06:46.204Z,9.50
2023-01-13T09:09:47.924Z,9.29
2023-01-13T09:13:08.133Z,9.12
2023-01-13T09:16:09.586Z,9.10
2023-01-13T09:19:11.045Z,9.13
2023-01-13T09:22:18.307Z,9.09
2023-01-13T09:25:19.817Z,9.34
2023-01-13T09:28:21.214Z,9.46
2023-01-13T09:31:22.620Z,9.56
2023-01-13T09:34:43.173Z,9.67
2023-01-13T09:37:44.629Z,9.58
2023-01-13T09:40:48.895Z,9.62
2023-01-13T09:43:56.723Z,9.65
2023-01-13T09:47:04.032Z,9.63
2023-01-13T09:50:22.227Z,9.59
2023-01-13T09:53:34.140Z,9.69
2023-01-13T09:56:35.882Z,9.94
2023-01-13T09:59:38.192Z,9.92
2023-01-13T10:03:08.267Z,9.99
2023-01-13T10:06:27.895Z,9.90
2023-01-13T10:09:51.384Z,10.16
2023-01-13T10:13:11.517Z,10.06
2023-01-13T10:16:46.557Z,9.94
2023-01-13T10:19:54.343Z,8.66
2023-01-13T10:23:14.293Z,8.30
2023-01-13T10:26:26.840Z,7.69
2023-01-13T10:29:30.111Z,8.31
2023-01-13T10:32:31.630Z,8.53
2023-01-13T10:35:56.661Z,8.07
2023-01-13T10:39:09.071Z,8.18
2023-01-13T10:42:16.860Z,8.20
2023-01-13T10:45:25.139Z,8.42
2023-01-13T10:48:57.072Z,8.42
2023-01-13T10:51:58.939Z,8.44
2023-01-13T10:55:01.223Z,8.55
2023-01-13T10:58:20.947Z,8.69
2023-01-13T11:01:27.274Z,8.90
2023-01-13T11:05:03.322Z,9.05
2023-01-13T11:08:05.107Z,9.00
2023-01-13T11:11:26.160Z,9.02
2023-01-13T11:14:42.153Z,8.89
2023-01-13T11:17:53.557Z,8.99
2023-01-13T11:20:56.628Z,8.92
2023-01-13T11:24:10.705Z,8.89
2023-01-13T11:27:39.843Z,8.88
2023-01-13T11:30:54.189Z,8.90
2023-01-13T11:34:23.657Z,9.07
2023-01-13T11:37:38.028Z,9.66
2023-01-13T11:40:46.895Z,9.82
2023-01-13T11:43:59.133Z,9.37
2023-01-13T11:47:01.271Z,9.82
2023-01-13T11:50:04.061Z,10.07
2023-01-13T11:53:29.055Z,9.93
2023-01-13T11:56:52.629Z,9.74
2023-01-13T12:00:18.153Z,10.60
2023-01-13T12:03:44.487Z,9.90
2023-01-13T12:06:49.339Z,9.66
2023-01-13T12:09:50.665Z,10.10
2023-01-13T12:13:20.727Z,10.07
2023-01-13T12:16:31.727Z,10.13
2023-01-13T12:19:33.292Z,10.19
2023-01-13T12:22:36.989Z,9.87
2023-01-13T12:25:46.387Z,9.81
2023-01-13T12:29:00.636Z,10.01
2023-01-13T12:32:05.049Z,10.03
2023-01-13T12:35:25.857Z,9.96
2023-01-13T12:38:34.481Z,9.81
2023-01-13T12:42:10.425Z,9.47
2023-01-13T12:45:11.795Z,9.27
2023-01-13T12:48:52.874Z,9.62
2023-01-13T12:51:54.552Z,9.58
2023-01-13T12:54:55.907Z,9.59
2023-01-13T12:58:06.068Z,9.46
2023-01-13T13:01:13.365Z,9.15
2023-01-13T13:04:20.520Z,9.24
2023-01-13T13:07:30.730Z,9.37
2023-01-13T13:10:37.458Z,9.06
2023-01-13T13:13:47.303Z,9.40
2023-01-13T13:16:51.738Z,9.29
2023-01-13T13:19:53.652Z,9.23
2023-01-13T13:22:55.095Z,9.36
2023-01-13T13:26:33.739Z,9.44
2023-01-13T13:29:47.783Z,9.66
2023-01-13T13:33:39.235Z,9.94
2023-01-13T13:37:03.621Z,9.81
2023-01-13T13:40:28.960Z,9.68
2023-01-13T13:43:59.330Z,10.06
2023-01-13T13:47:03.551Z,9.68
2023-01-13T13:50:14.350Z,9.93
2023-01-13T13:53:19.564Z,10.26
2023-01-13T13:56:28.077Z,9.93
2023-01-13T13:59:30.798Z,10.30
2023-01-13T14:02:36.917Z,10.33
2023-01-13T14:05:38.422Z,10.36
2023-01-13T14:08:46.596Z,10.20
2023-01-13T14:12:15.620Z,10.26
2023-01-13T14:15:33.461Z,10.26
2023-01-13T14:18:48.092Z,10.02
2023-01-13T14:21:49.540Z,10.15
2023-01-13T14:24:55.699Z,10.02
2023-01-13T14:28:00.140Z,10.09
2023-01-13T14:31:02.220Z,9.89
2023-01-13T14:34:28.785Z,10.06
2023-01-13T14:37:41.603Z,10.02
2023-01-13T14:40:45.758Z,9.93
2023-01-13T14:43:48.950Z,9.98
2023-01-13T14:46:53.183Z,9.91
2023-01-13T14:50:02.146Z,9.96
2023-01-13T14:53:05.086Z,9.95
2023-01-13T14:56:39.994Z,9.74
2023-01-13T14:59:48.598Z,9.64
2023-01-13T15:02:53.692Z,9.52
2023-01-13T15:05:57.744Z,9.72
2023-01-13T15:08:59.164Z,9.84
2023-01-13T15:12:15.680Z,9.69
2023-01-13T15:15:39.152Z,10.00
2023-01-13T15:18:41.285Z,9.80
2023-01-13T15:21:42.708Z,9.90
2023-01-13T15:24:44.218Z,9.80
2023-01-13T15:27:50.540Z,9.86
2023-01-13T15:30:55.537Z,9.92
2023-01-13T15:33:58.663Z,9.83
2023-01-13T15:37:00.086Z,9.51
2023-01-13T15:40:01.579Z,9.60
2023-01-13T15:43:21.797Z,9.84
2023-01-13T15:46:38.487Z,10.02
2023-01-13T15:49:46.163Z,9.98
2023-01-13T15:52:47.590Z,10.02
2023-01-13T15:55:55.293Z,10.07
2023-01-13T15:58:57.164Z,9.75
2023-01-13T16:01:58.551Z,9.84
2023-01-13T16:05:00.045Z,9.41
2023-01-13T16:08:01.518Z,9.52
2023-01-13T16:11:03.402Z,9.59
2023-01-13T16:14:04.827Z,9.42
2023-01-13T16:17:21.857Z,9.27
2023-01-13T16:20:23.683Z,9.30
2023-01-13T16:23:25.137Z,8.59
2023-01-13T16:26:32.584Z,8.54
2023-01-13T16:29:34.012Z,7.89
2023-01-13T16:32:35.391Z,7.84
2023-01-13T16:35:36.829Z,7.94
2023-01-13T16:38:58.190Z,7.43
2023-01-13T16:41:59.569Z,7.89
2023-01-13T16:45:08.396Z,7.45
2023-01-13T16:48:19.473Z,7.53
2023-01-13T16:51:22.373Z,7.11
2023-01-13T16:54:23.757Z,7.43
2023-01-13T16:57:25.159Z,7.53
2023-01-13T17:00:26.836Z,6.81
2023-01-13T17:03:29.822Z,6.58
2023-01-13T17:06:39.319Z,6.79
2023-01-13T17:09:40.781Z,6.96
2023-01-13T17:12:42.214Z,6.84
2023-01-13T17:15:45.051Z,6.78
2023-01-13T17:18:48.186Z,7.06
2023-01-13T17:21:51.055Z,6.89
2023-01-13T17:24:52.511Z,6.98
2023-01-13T17:27:53.928Z,6.92
2023-01-13T17:30:55.495Z,6.60
2023-01-13T17:33:57.095Z,6.82
2023-01-13T17:36:58.589Z,6.57
2023-01-13T17:40:00.743Z,6.41
2023-01-13T17:43:02.216Z,6.54
2023-01-13T17:46:08.696Z,6.76
2023-01-13T17:49:15.323Z,6.92
2023-01-13T17:52:16.775Z,6.77
2023-01-13T17:55:18.212Z,6.71
2023-01-13T17:58:21.446Z,6.64
2023-01-13T18:01:22.950Z,6.82
2023-01-13T18:04:28.893Z,6.62
2023-01-13T18:07:30.354Z,6.72
2023-01-13T18:10:33.010Z,6.80
2023-01-13T18:13:35.188Z,6.97
2023-01-13T18:16:39.793Z,7.01
2023-01-13T18:19:59.994Z,6.78
2023-01-13T18:23:20.267Z,7.06
2023-01-13T18:26:40.012Z,7.17
2023-01-13T18:29:42.459Z,7.37
2023-01-13T18:32:43.906Z,7.48
2023-01-13T18:35:45.298Z,7.28
2023-01-13T18:38:48.360Z,7.21
2023-01-13T18:42:08.271Z,7.18
2023-01-13T18:45:10.689Z,7.32
2023-01-13T18:48:12.231Z,7.58
2023-01-13T18:51:13.646Z,7.62
2023-01-13T18:54:15.185Z,7.40
2023-01-13T18:57:16.991Z,7.38
2023-01-13T19:00:20.377Z,7.68
2023-01-13T19:03:29.929Z,7.72
2023-01-13T19:06:33.787Z,7.72
2023-01-13T19:09:35.297Z,7.61
2023-01-13T19:12:36.825Z,7.62
2023-01-13T19:15:38.283Z,7.63
2023-01-13T19:18:41.032Z,7.37
2023-01-13T19:21:42.440Z,7.57
2023-01-13T19:24:43.832Z,7.51
2023-01-13T19:27:45.345Z,7.58
2023-01-13T19:30:46.862Z,7.59
2023-01-13T19:33:48.316Z,7.63
2023-01-13T19:36:51.802Z,7.57
2023-01-13T19:39:53.256Z,7.61
2023-01-13T19:43:13.202Z,7.58
2023-01-13T19:46:14.759Z,7.57
2023-01-13T19:49:16.261Z,7.51
2023-01-13T19:52:17.704Z,7.69
2023-01-13T19:55:19.738Z,7.41
2023-01-13T19:58:23.978Z,7.66
2023-01-13T20:01:31.643Z,7.93
2023-01-13T20:04:39.028Z,7.71
2023-01-13T20:07:40.416Z,7.81
2023-01-13T20:10:45.033Z,7.70
2023-01-13T20:13:46.499Z,7.79
2023-01-13T20:16:47.976Z,7.90
2023-01-13T20:19:49.409Z,7.88
2023-01-13T20:22:51.046Z,7.86
2023-01-13T20:25:52.517Z,7.95
2023-01-13T20:28:54.014Z,7.97
2023-01-13T20:31:55.736Z,8.11
2023-01-13T20:34:57.151Z,7.99
2023-01-13T20:37:58.562Z,7.91
2023-01-13T20:41:01.566Z,8.08
2023-01-13T20:44:02.961Z,7.83
2023-01-13T20:47:05.032Z,8.02
2023-01-13T20:50:07.124Z,8.07
2023-01-13T20:53:08.841Z,8.03
2023-01-13T20:56:10.236Z,7.93
2023-01-13T20:59:11.636Z,7.67
2023-01-13T21:02:15.127Z,7.92
2023-01-13T21:05:16.649Z,7.74
2023-01-13T21:08:18.093Z,7.80
2023-01-13T21:11:39.817Z,8.03
2023-01-13T21:14:59.708Z,7.98
2023-01-13T21:18:19.548Z,7.79
2023-01-13T21:21:21.049Z,7.91
2023-01-13T21:24:23.606Z,7.88
2023-01-13T21:27:25.667Z,7.94
2023-01-13T21:30:27.095Z,7.95
2023-01-13T21:33:29.811Z,7.97
2023-01-13T21:36:31.473Z,7.84
2023-01-13T21:39:32.889Z,7.82
2023-01-13T21:42:53.024Z,7.86
2023-01-13T21:46:12.833Z,8.04
2023-01-13T21:49:14.356Z,7.98
2023-01-13T21:52:16.303Z,8.11
2023-01-13T21:55:29.194Z,7.87
2023-01-13T21:58:30.715Z,7.79
2023-01-13T22:01:32.245Z,7.90
2023-01-13T22:04:33.799Z,7.95
2023-01-13T22:07:36.229Z,7.93
2023-01-13T22:10:56.831Z,7.81
2023-01-13T22:14:09.606Z,7.80
2023-01-13T22:17:14.292Z,7.52
2023-01-13T22:20:16.780Z,7.62
2023-01-13T22:23:20.072Z,7.68
2023-01-13T22:26:21.480Z,7.61
2023-01-13T22:29:22.974Z,7.46
2023-01-13T22:32:24.532Z,7.36
2023-01-13T22:35:25.937Z,7.33
2023-01-13T22:38:27.366Z,7.69
2023-01-13T22:41:28.899Z,7.63
2023-01-13T22:44:30.413Z,7.37
2023-01-13T22:47:33.007Z,7.52
2023-01-13T22:50:34.421Z,7.52
2023-01-13T22:53:36.481Z,7.49
2023-01-13T22:56:38.282Z,7.63
2023-01-13T22:59:39.697Z,7.28
2023-01-13T23:02:41.213Z,7.25
2023-01-13T23:05:42.890Z,7.24
2023-01-13T23:08:45.117Z,7.15
2023-01-13T23:11:47.844Z,7.26
2023-01-13T23:14:49.358Z,7.40
2023-01-13T23:17:51.465Z,7.31
2023-01-13T23:20:52.850Z,7.22
2023-01-13T23:23:54.890Z,7.10
2023-01-13T23:26:56.317Z,7.29
2023-01-13T23:29:57.729Z,7.21
2023-01-13T23:32:59.217Z,7.24
2023-01-13T23:36:03.203Z,6.87
2023-01-13T23:39:04.606Z,7.18
2023-01-13T23:42:06.106Z,7.48
2023-01-13T23:45:08.324Z,7.21
2023-01-13T23:48:09.846Z,7.33
2023-01-13T23:51:13.020Z,7.39
2023-01-13T23:54:14.434Z,7.11
2023-01-13T23:57:15.811Z,7.44
